Time;durP1;ratioP1;P1;durP2;ratioP2;P2;SDS_P1;SDS_P2;PMS_P1;PMS_P2;Temp;Humidity;BMP_temperature;BMP_pressure;BME280_temperature;BME280_humidity;BME280_pressure;Samples;Min_cycle;Max_cycle;Signal;HPM_P1;HPM_P2
2021/04/15 00:00:55;;;;;;;6.13;2.60;;;4.10;93.20;;;;;;5085403;28;20064;-37
2021/04/15 00:03:28;;;;;;;4.03;2.75;;;4.10;93.20;;;;;;5085782;28;20048;-37
2021/04/15 00:06:14;;;;;;;5.05;2.40;;;4.10;93.50;;;;;;5090716;28;20587;-37
2021/04/15 00:08:47;;;;;;;5.25;2.65;;;4.00;93.40;;;;;;5085390;28;20503;-37
2021/04/15 00:11:19;;;;;;;6.18;2.78;;;4.10;93.50;;;;;;5082641;28;20060;-37
2021/04/15 00:13:49;;;;;;;3.92;2.65;;;4.10;93.50;;;;;;5084205;28;20507;-37
2021/04/15 00:16:22;;;;;;;4.97;2.50;;;4.10;93.50;;;;;;5088378;28;20089;-37
2021/04/15 00:18:53;;;;;;;7.55;3.05;;;4.10;93.40;;;;;;5086993;28;20487;-37
2021/04/15 00:21:26;;;;;;;5.32;3.28;;;4.00;93.50;;;;;;5083830;28;20408;-37
2021/04/15 00:23:57;;;;;;;6.40;3.10;;;4.10;93.50;;;;;;5086359;28;20125;-37
2021/04/15 00:26:28;;;;;;;7.60;2.88;;;4.10;93.30;;;;;;5086664;28;20048;-37
2021/04/15 00:29:00;;;;;;;4.95;2.55;;;4.00;93.30;;;;;;5087189;28;20048;-37
2021/04/15 00:31:28;;;;;;;4.93;2.55;;;4.00;93.50;;;;;;5087641;28;20052;-36
2021/04/15 00:33:58;;;;;;;4.88;3.05;;;4.00;93.40;;;;;;5085346;28;20051;-37
2021/04/15 00:36:31;;;;;;;4.68;3.22;;;4.00;93.40;;;;;;5087118;28;20434;-37
2021/04/15 00:39:08;;;;;;;6.38;3.00;;;4.00;93.40;;;;;;5087419;28;20052;-37
2021/04/15 00:41:40;;;;;;;5.07;2.70;;;4.00;93.50;;;;;;5086220;28;20047;-37
2021/04/15 00:44:09;;;;;;;8.02;3.30;;;3.90;93.50;;;;;;5087483;28;20036;-37
2021/04/15 00:46:58;;;;;;;7.18;3.50;;;3.90;93.70;;;;;;5086593;28;20044;-37
2021/04/15 00:49:37;;;;;;;3.83;2.97;;;3.90;93.80;;;;;;5085962;28;20091;-37
2021/04/15 00:52:20;;;;;;;5.88;3.50;;;3.80;93.90;;;;;;5086350;28;20044;-38
2021/04/15 00:54:56;;;;;;;4.72;3.10;;;3.80;93.90;;;;;;5085868;28;20040;-37
2021/04/15 00:57:34;;;;;;;8.00;3.78;;;3.70;93.70;;;;;;5085209;28;20846;-37
2021/04/15 01:00:01;;;;;;;6.00;3.22;;;3.70;94.00;;;;;;5084456;28;20123;-37
2021/04/15 01:02:37;;;;;;;7.55;3.63;;;3.60;93.70;;;;;;5085787;28;20047;-37
2021/04/15 01:05:17;;;;;;;6.43;3.33;;;3.60;94.00;;;;;;5084254;28;20134;-37
2021/04/15 01:07:44;;;;;;;7.07;3.50;;;3.60;93.70;;;;;;5081871;28;20448;-37
2021/04/15 01:10:15;;;;;;;6.63;3.65;;;3.50;93.70;;;;;;5084961;28;20056;-37
2021/04/15 01:13:06;;;;;;;6.55;3.88;;;3.50;93.60;;;;;;5084414;28;20506;-37
2021/04/15 01:15:52;;;;;;;6.80;3.67;;;3.50;94.00;;;;;;5086043;28;20048;-37
2021/04/15 01:18:46;;;;;;;5.25;3.45;;;3.50;93.90;;;;;;5085507;28;20493;-37
2021/04/15 01:21:21;;;;;;;6.45;3.92;;;3.40;93.90;;;;;;5085258;28;20048;-37
2021/04/15 01:24:00;;;;;;;5.13;3.30;;;3.40;94.30;;;;;;5086915;28;20196;-37
2021/04/15 01:26:44;;;;;;;6.68;3.85;;;3.30;94.00;;;;;;5085364;28;20051;-37
2021/04/15 01:29:33;;;;;;;8.43;3.97;;;3.30;93.80;;;;;;5080837;28;20174;-39
2021/04/15 01:32:18;;;;;;;6.28;3.60;;;3.30;93.80;;;;;;5083236;28;20056;-38
2021/04/15 01:35:08;;;;;;;6.63;3.55;;;3.30;94.00;;;;;;5085821;28;20048;-38
2021/04/15 01:37:54;;;;;;;5.53;3.53;;;3.30;94.10;;;;;;5086508;28;20121;-38
2021/04/15 01:40:31;;;;;;;6.38;3.90;;;3.20;93.90;;;;;;5086204;28;20052;-38
2021/04/15 01:43:06;;;;;;;6.10;3.88;;;3.20;93.80;;;;;;5085424;28;20774;-38
2021/04/15 01:45:36;;;;;;;6.53;3.92;;;3.20;94.00;;;;;;5086252;28;20051;-38
2021/04/15 01:48:16;;;;;;;8.10;3.80;;;3.20;93.90;;;;;;5085518;28;20135;-38
2021/04/15 01:50:52;;;;;;;4.10;3.30;;;3.20;93.90;;;;;;5083006;28;20454;-39
2021/04/15 01:53:29;;;;;;;7.20;3.78;;;3.20;93.80;;;;;;5085247;28;20420;-38
2021/04/15 01:56:22;;;;;;;8.27;3.78;;;3.10;94.10;;;;;;5085718;28;20710;-38
2021/04/15 01:59:12;;;;;;;5.47;3.50;;;3.00;93.80;;;;;;5084573;28;20062;-38
2021/04/15 02:01:45;;;;;;;6.53;3.88;;;3.00;93.90;;;;;;5084133;28;20048;-38
2021/04/15 02:04:24;;;;;;;6.85;4.00;;;2.90;93.80;;;;;;5084887;28;20044;-38
2021/04/15 02:07:02;;;;;;;6.88;4.00;;;2.90;93.70;;;;;;5084101;28;20078;-38
2021/04/15 02:09:34;;;;;;;5.38;3.60;;;2.80;93.70;;;;;;5085610;28;20048;-38
2021/04/15 02:12:29;;;;;;;5.88;3.60;;;2.80;93.70;;;;;;5081628;28;20249;-38
2021/04/15 02:15:05;;;;;;;5.93;4.18;;;2.70;93.90;;;;;;5084230;28;20055;-38
2021/04/15 02:17:38;;;;;;;7.53;4.40;;;2.70;94.10;;;;;;5084068;28;20112;-37
2021/04/15 02:20:27;;;;;;;6.28;4.07;;;2.60;94.00;;;;;;5085000;28;20531;-37
2021/04/15 02:23:19;;;;;;;5.63;4.35;;;2.60;94.10;;;;;;5099395;28;20056;-37
2021/04/15 02:26:00;;;;;;;6.43;3.88;;;2.50;94.40;;;;;;5084017;28;20094;-37
2021/04/15 02:28:47;;;;;;;6.35;3.85;;;2.50;94.50;;;;;;5084563;28;20567;-37
2021/04/15 02:31:23;;;;;;;6.20;4.28;;;2.40;94.10;;;;;;5084509;28;20051;-37
2021/04/15 02:34:00;;;;;;;7.40;3.97;;;2.30;93.90;;;;;;5082688;28;20048;-37
2021/04/15 02:36:39;;;;;;;5.85;3.90;;;2.30;94.10;;;;;;5084038;28;20048;-37
2021/04/15 02:39:16;;;;;;;5.60;3.88;;;2.20;93.90;;;;;;5083211;28;20389;-37
2021/04/15 02:41:49;;;;;;;5.13;3.72;;;2.20;94.00;;;;;;5088716;28;20403;-37
2021/04/15 02:44:25;;;;;;;7.10;4.45;;;2.10;93.90;;;;;;5084483;28;20044;-39
2021/04/15 02:47:01;;;;;;;4.88;3.90;;;2.10;94.10;;;;;;5089580;28;20571;-37
2021/04/15 02:49:31;;;;;;;6.78;4.30;;;2.00;94.30;;;;;;5084136;28;20392;-37
2021/04/15 02:52:07;;;;;;;7.93;4.47;;;1.90;94.30;;;;;;5083697;28;20083;-37
2021/04/15 02:54:46;;;;;;;7.25;4.35;;;1.90;94.10;;;;;;5084152;28;20052;-37
2021/04/15 02:57:22;;;;;;;7.50;5.18;;;1.90;94.20;;;;;;5083879;28;20048;-37
2021/04/15 03:00:16;;;;;;;8.63;4.70;;;1.90;94.60;;;;;;5084341;28;20043;-37
2021/04/15 03:03:03;;;;;;;7.93;4.68;;;1.80;94.90;;;;;;5069918;28;20048;-37
2021/04/15 03:05:40;;;;;;;7.47;4.70;;;1.80;94.70;;;;;;5082170;28;20059;-37
2021/04/15 03:08:16;;;;;;;7.70;5.00;;;1.80;95.10;;;;;;5085484;28;20392;-37
2021/04/15 03:10:51;;;;;;;7.47;5.13;;;1.70;94.70;;;;;;5087974;28;20086;-37
2021/04/15 03:13:43;;;;;;;7.03;4.10;;;1.70;94.90;;;;;;5085785;28;20135;-37
2021/04/15 03:16:18;;;;;;;5.93;4.05;;;1.60;94.80;;;;;;5083511;28;20047;-37
2021/04/15 03:19:00;;;;;;;9.32;4.78;;;1.60;94.90;;;;;;5084013;28;20048;-37
2021/04/15 03:21:43;;;;;;;5.18;3.90;;;1.50;94.80;;;;;;5083659;28;20040;-37
2021/04/15 03:24:23;;;;;;;7.13;4.82;;;1.40;94.80;;;;;;5084337;28;20112;-37
2021/04/15 03:27:11;;;;;;;7.07;4.68;;;1.40;94.70;;;;;;5086294;28;20057;-37
2021/04/15 03:29:47;;;;;;;6.25;4.38;;;1.30;94.60;;;;;;5089849;28;20446;-37
2021/04/15 03:32:43;;;;;;;6.07;3.97;;;1.40;94.80;;;;;;5087075;28;20544;-37
2021/04/15 03:35:28;;;;;;;7.25;4.65;;;1.30;94.70;;;;;;5088973;28;20048;-37
2021/04/15 03:38:02;;;;;;;9.70;5.70;;;1.20;94.90;;;;;;5087844;28;20127;-37
2021/04/15 03:40:40;;;;;;;8.52;5.60;;;1.20;95.00;;;;;;5088404;28;20044;-37
2021/04/15 03:43:22;;;;;;;8.60;5.78;;;1.20;95.10;;;;;;5086975;28;20801;-38
2021/04/15 03:46:01;;;;;;;7.88;5.03;;;1.20;95.00;;;;;;5087193;28;20040;-37
2021/04/15 03:48:42;;;;;;;9.37;5.60;;;1.10;95.20;;;;;;5086878;28;20062;-37
2021/04/15 03:51:32;;;;;;;9.95;5.47;;;1.10;95.30;;;;;;5088204;28;20305;-37
2021/04/15 03:54:12;;;;;;;9.70;5.85;;;1.10;95.20;;;;;;5088107;28;20048;-37
2021/04/15 03:56:44;;;;;;;8.68;5.10;;;1.10;95.20;;;;;;5088408;28;20246;-37
2021/04/15 03:59:23;;;;;;;8.98;4.88;;;1.00;95.30;;;;;;5086294;28;20098;-37
2021/04/15 04:02:04;;;;;;;6.87;4.27;;;1.00;95.20;;;;;;5087654;28;20046;-37
2021/04/15 04:04:47;;;;;;;10.85;6.68;;;1.00;95.30;;;;;;5085362;28;20404;-37
2021/04/15 04:07:29;;;;;;;10.30;5.22;;;1.00;95.50;;;;;;5085583;28;20122;-37
2021/04/15 04:10:14;;;;;;;10.27;6.10;;;1.00;95.10;;;;;;5085927;28;20403;-37
2021/04/15 04:13:15;;;;;;;11.20;5.38;;;1.00;95.20;;;;;;5086824;28;20092;-38
2021/04/15 04:15:48;;;;;;;16.15;7.43;;;1.00;95.50;;;;;;5024822;28;20080;-37
2021/04/15 04:18:33;;;;;;;23.92;7.30;;;1.00;95.20;;;;;;5007203;28;20053;-37
2021/04/15 04:21:20;;;;;;;28.98;6.75;;;1.00;95.00;;;;;;5023169;28;20052;-37
2021/04/15 04:23:59;;;;;;;48.28;8.93;;;1.10;95.10;;;;;;5023921;28;20050;-38
2021/04/15 04:27:05;;;;;;;41.10;7.82;;;1.00;95.10;;;;;;5025462;28;20628;-38
2021/04/15 04:29:54;;;;;;;45.17;7.35;;;1.20;96.10;;;;;;4964363;28;20719;-37
2021/04/15 04:32:29;;;;;;;23.77;6.00;;;1.20;96.10;;;;;;4968092;28;20495;-37
2021/04/15 04:35:02;;;;;;;13.00;5.20;;;1.20;96.00;;;;;;4958947;28;20157;-37
2021/04/15 04:37:40;;;;;;;10.63;5.40;;;1.30;96.00;;;;;;4965271;28;20051;-37
2021/04/15 04:40:18;;;;;;;9.45;5.50;;;1.30;96.30;;;;;;4965318;28;20103;-37
2021/04/15 04:43:03;;;;;;;8.55;5.07;;;1.30;96.20;;;;;;4966988;28;20133;-36
2021/04/15 04:45:30;;;;;;;9.85;6.22;;;1.30;96.10;;;;;;4966351;28;20054;-37
2021/04/15 04:48:06;;;;;;;9.40;5.60;;;1.30;96.00;;;;;;4965966;28;20439;-38
2021/04/15 04:50:54;;;;;;;9.00;5.65;;;1.40;95.90;;;;;;4966505;28;20065;-36
2021/04/15 04:53:40;;;;;;;10.30;5.55;;;1.40;95.90;;;;;;5011658;28;20092;-36
2021/04/15 04:56:22;;;;;;;9.82;5.28;;;1.50;95.90;;;;;;5015853;28;20152;-37
2021/04/15 04:59:01;;;;;;;9.13;5.45;;;1.40;95.80;;;;;;5016532;28;20069;-38
2021/04/15 05:01:29;;;;;;;10.65;5.28;;;1.40;95.50;;;;;;5019301;28;20060;-38
2021/04/15 05:04:03;;;;;;;9.43;5.30;;;1.40;95.30;;;;;;4999464;28;20414;-36
2021/04/15 05:06:40;;;;;;;11.05;5.65;;;1.50;95.30;;;;;;5087803;28;20162;-37
2021/04/15 05:09:30;;;;;;;9.10;5.85;;;1.50;95.10;;;;;;5088229;28;20082;-37
2021/04/15 05:11:57;;;;;;;10.15;6.10;;;1.50;94.90;;;;;;5085195;28;20063;-37
2021/04/15 05:14:28;;;;;;;9.63;6.07;;;1.50;94.80;;;;;;5087121;28;20056;-37
2021/04/15 05:17:19;;;;;;;12.85;8.63;;;1.50;94.80;;;;;;5095536;28;20043;-37
2021/04/15 05:19:50;;;;;;;15.32;9.13;;;1.50;94.90;;;;;;5099928;28;20396;-37
2021/04/15 05:22:36;;;;;;;14.60;9.45;;;1.60;95.10;;;;;;5083125;28;20478;-37
2021/04/15 05:25:10;;;;;;;14.10;8.50;;;1.70;95.10;;;;;;5088164;28;20056;-38
2021/04/15 05:27:38;;;;;;;13.15;7.82;;;1.70;95.00;;;;;;5090174;28;20181;-37
2021/04/15 05:30:28;;;;;;;14.38;7.47;;;1.70;95.10;;;;;;5090542;28;20044;-37
2021/04/15 05:33:00;;;;;;;15.60;9.20;;;1.70;95.10;;;;;;5038435;28;20048;-37
2021/04/15 05:35:41;;;;;;;15.30;8.70;;;1.80;95.10;;;;;;5087807;28;20052;-37
2021/04/15 05:38:11;;;;;;;21.23;9.38;;;1.80;95.20;;;;;;5087443;28;20496;-37
2021/04/15 05:40:41;;;;;;;17.17;8.77;;;1.90;95.20;;;;;;5083940;28;20074;-37
2021/04/15 05:43:27;;;;;;;17.60;8.52;;;2.00;95.20;;;;;;5081198;28;20072;-36
2021/04/15 05:46:13;;;;;;;15.82;9.15;;;2.20;95.30;;;;;;5080076;28;20048;-43
2021/04/15 05:48:41;;;;;;;43.58;32.22;;;2.50;95.30;;;;;;5073091;28;20067;-45
2021/04/15 05:51:13;;;;;;;13.75;8.52;;;2.70;95.20;;;;;;5077246;28;20048;-43
2021/04/15 05:53:47;;;;;;;16.42;9.80;;;2.90;95.10;;;;;;5084012;28;20051;-43
2021/04/15 05:56:25;;;;;;;12.82;7.13;;;3.00;94.90;;;;;;5082912;28;20127;-43
2021/04/15 05:59:14;;;;;;;11.60;6.78;;;3.20;94.90;;;;;;5081242;28;20496;-45
2021/04/15 06:01:47;;;;;;;14.23;6.22;;;3.40;94.80;;;;;;5083140;28;20483;-43
2021/04/15 06:04:30;;;;;;;9.48;5.93;;;3.60;94.70;;;;;;5082213;28;20048;-45
2021/04/15 06:07:05;;;;;;;9.65;6.00;;;3.80;94.10;;;;;;5081814;28;20053;-44
2021/04/15 06:09:40;;;;;;;45.75;31.73;;;4.00;94.10;;;;;;5081736;28;20044;-45
2021/04/15 06:12:15;;;;;;;13.38;7.20;;;4.20;94.10;;;;;;5070827;28;20039;-44
2021/04/15 06:14:56;;;;;;;13.55;7.32;;;4.40;94.00;;;;;;5079766;28;20400;-44
2021/04/15 06:17:33;;;;;;;13.50;5.88;;;4.60;93.90;;;;;;5078675;28;20056;-44
2021/04/15 06:20:07;;;;;;;12.45;8.15;;;4.80;93.30;;;;;;5083295;28;20074;-44
2021/04/15 06:22:48;;;;;;;14.10;10.10;;;4.90;92.70;;;;;;5083191;28;20048;-44
2021/04/15 06:25:26;;;;;;;11.73;7.00;;;5.10;92.40;;;;;;5077977;28;20135;-44
2021/04/15 06:27:54;;;;;;;12.18;6.72;;;5.30;92.40;;;;;;5071005;28;20504;-45
2021/04/15 06:30:36;;;;;;;12.10;7.43;;;5.50;92.40;;;;;;5075743;28;20101;-44
2021/04/15 06:33:17;;;;;;;13.65;7.78;;;5.60;92.10;;;;;;5047248;28;20139;-41
2021/04/15 06:35:52;;;;;;;17.25;11.57;;;5.70;91.30;;;;;;5079751;28;20067;-42
2021/04/15 06:38:29;;;;;;;17.75;11.10;;;6.00;91.80;;;;;;5087645;28;20423;-45
2021/04/15 06:41:30;;;;;;;11.07;8.38;;;6.30;91.70;;;;;;5085200;28;20052;-40
2021/04/15 06:44:16;;;;;;;;;;;6.50;90.90;;;;;;5079810;28;20080;-40
2021/04/15 06:47:28;;;;;;;14.80;8.77;;;6.60;88.00;;;;;;5080920;28;19951;-39
2021/04/15 06:50:08;;;;;;;8.70;6.00;;;7.10;89.90;;;;;;5082896;28;20055;-43
2021/04/15 06:52:37;;;;;;;11.02;5.85;;;7.40;89.80;;;;;;5081472;28;20571;-39
2021/04/15 06:55:24;;;;;;;10.15;6.78;;;7.60;89.50;;;;;;5079042;28;20048;-39
2021/04/15 06:58:17;;;;;;;10.40;6.15;;;7.90;88.00;;;;;;5064583;28;20052;-39
2021/04/15 07:00:46;;;;;;;;;;;8.20;85.00;;;;;;5072615;28;20056;-39
2021/04/15 07:03:39;;;;;;;8.48;4.80;;;8.40;80.90;;;;;;5078032;28;19958;-39
2021/04/15 07:06:19;;;;;;;12.27;4.30;;;8.80;82.10;;;;;;5077159;28;20133;-39
2021/04/15 07:08:50;;;;;;;96.88;70.20;;;9.20;84.10;;;;;;5070383;28;20044;-39
2021/04/15 07:12:13;;;;;;;23.17;15.90;;;9.50;83.10;;;;;;5079669;28;20135;-39
2021/04/15 07:14:40;;;;;;;9.95;5.05;;;9.30;80.90;;;;;;5081383;28;20052;-38
2021/04/15 07:17:14;;;;;;;8.50;4.30;;;9.10;80.30;;;;;;5078010;28;20040;-38
2021/04/15 07:19:58;;;;;;;17.90;10.68;;;9.20;80.10;;;;;;5083710;28;20040;-37
2021/04/15 07:23:07;;;;;;;24.55;16.27;;;9.40;79.80;;;;;;5085648;28;20181;-37
2021/04/15 07:25:57;;;;;;;15.63;8.68;;;9.80;78.20;;;;;;5078334;28;20363;-37
2021/04/15 07:29:10;;;;;;;19.08;14.35;;;9.90;77.70;;;;;;5087894;28;20070;-38
2021/04/15 07:32:09;;;;;;;15.75;7.53;;;10.10;76.10;;;;;;5048874;28;20072;-37
2021/04/15 07:34:55;;;;;;;17.20;10.60;;;10.30;76.60;;;;;;5000289;28;20049;-37
2021/04/15 07:38:15;;;;;;;17.52;11.75;;;10.50;73.70;;;;;;4908212;29;20048;-38
2021/04/15 07:41:13;;;;;;;9.27;3.60;;;10.60;71.50;;;;;;4833689;29;20062;-38
2021/04/15 07:44:12;;;;;;;21.38;15.25;;;10.60;72.00;;;;;;4833620;29;20065;-38
2021/04/15 07:47:11;;;;;;;12.77;5.40;;;10.90;72.90;;;;;;4830651;29;20068;-39
2021/04/15 07:50:01;;;;;;;11.27;6.35;;;11.10;70.90;;;;;;4832659;29;20050;-38
2021/04/15 07:53:10;;;;;;;12.25;5.22;;;11.10;68.70;;;;;;4834475;29;20057;-38
2021/04/15 07:56:04;;;;;;;17.48;9.38;;;11.20;68.40;;;;;;4832770;29;20054;-38
2021/04/15 07:58:59;;;;;;;16.40;12.20;;;10.60;68.40;;;;;;4832511;29;20065;-38
2021/04/15 08:01:53;;;;;;;11.35;6.05;;;10.40;70.30;;;;;;4832761;29;20135;-38
2021/04/15 08:04:38;;;;;;;14.43;5.63;;;10.20;70.70;;;;;;4832573;29;20072;-38
2021/04/15 08:07:35;;;;;;;12.35;5.07;;;10.10;72.50;;;;;;4832157;29;20045;-38
2021/04/15 08:10:22;;;;;;;13.68;6.80;;;9.90;71.40;;;;;;4819116;29;20069;-38
2021/04/15 08:13:27;;;;;;;13.13;5.05;;;9.70;72.80;;;;;;4871024;29;20061;-38
2021/04/15 08:16:24;;;;;;;11.52;4.43;;;9.40;74.60;;;;;;5004685;28;20068;-38
2021/04/15 08:19:12;;;;;;;13.10;4.78;;;9.90;74.20;;;;;;5056762;28;20040;-38
2021/04/15 08:21:53;;;;;;;12.77;5.75;;;10.50;69.40;;;;;;5055056;28;20513;-38
2021/04/15 08:24:58;;;;;;;14.18;5.88;;;10.40;70.30;;;;;;5050218;28;20057;-39
2021/04/15 08:27:43;;;;;;;14.68;6.15;;;9.90;69.00;;;;;;5051428;28;20041;-38
2021/04/15 08:30:26;;;;;;;8.02;4.38;;;9.40;72.00;;;;;;5068937;28;20157;-38
2021/04/15 08:33:26;;;;;;;9.27;4.07;;;9.30;74.10;;;;;;5051504;28;20076;-38
2021/04/15 08:35:59;;;;;;;10.75;4.88;;;10.30;71.80;;;;;;5050022;28;20103;-38
2021/04/15 08:39:22;;;;;;;8.05;4.53;;;11.20;69.20;;;;;;5049524;28;20079;-38
2021/04/15 08:41:54;;;;;;;7.18;3.65;;;11.60;67.60;;;;;;5050530;28;20056;-38
2021/04/15 08:44:24;;;;;;;16.85;5.57;;;12.00;66.40;;;;;;5059380;28;20045;-38
2021/04/15 08:47:00;;;;;;;6.97;3.97;;;12.70;65.20;;;;;;5055243;28;20053;-38
2021/04/15 08:49:47;;;;;;;;;;;12.80;65.40;;;;;;5049792;28;20144;-38
2021/04/15 08:52:38;;;;;;;10.13;4.13;;;12.30;59.90;;;;;;5053832;28;20011;-38
2021/04/15 08:55:45;;;;;;;9.50;4.75;;;11.30;63.20;;;;;;5049652;28;20489;-39
2021/04/15 08:58:50;;;;;;;10.77;5.25;;;11.20;64.90;;;;;;5007005;28;20124;-40
2021/04/15 09:01:33;;;;;;;8.70;3.85;;;11.60;66.80;;;;;;5026949;28;20060;-37
2021/04/15 09:04:22;;;;;;;7.47;3.22;;;12.10;63.90;;;;;;5013387;28;20049;-36
2021/04/15 09:07:38;;;;;;;7.85;3.88;;;12.70;61.70;;;;;;5011225;28;20041;-38
2021/04/15 09:10:26;;;;;;;8.05;2.80;;;13.30;61.40;;;;;;5025492;28;20085;-37
2021/04/15 09:13:02;;;;;;;6.60;2.88;;;12.90;54.00;;;;;;5009428;28;20061;-37
2021/04/15 09:15:56;;;;;;;7.75;2.63;;;12.10;56.60;;;;;;5026153;28;20057;-37
2021/04/15 09:18:53;;;;;;;8.18;3.22;;;11.50;57.90;;;;;;5025082;28;20954;-37
2021/04/15 09:21:45;;;;;;;7.15;3.50;;;10.90;60.10;;;;;;5022861;28;20102;-37
2021/04/15 09:24:42;;;;;;;7.05;3.13;;;10.80;61.70;;;;;;5013364;28;20049;-38
2021/04/15 09:27:09;;;;;;;6.38;2.97;;;10.90;62.40;;;;;;5015771;28;20136;-37
2021/04/15 09:29:52;;;;;;;24.45;15.32;;;11.90;62.40;;;;;;5023067;28;20136;-39
2021/04/15 09:32:42;;;;;;;8.45;5.30;;;13.30;57.20;;;;;;5020301;28;20607;-39
2021/04/15 09:35:14;;;;;;;9.68;5.60;;;14.20;48.70;;;;;;5055222;28;20059;-39
2021/04/15 09:38:05;;;;;;;11.75;7.78;;;14.70;49.00;;;;;;5061182;28;20099;-39
2021/04/15 09:41:03;;;;;;;4.50;2.83;;;14.20;42.20;;;;;;5066379;28;20053;-39
2021/04/15 09:44:07;;;;;;;9.52;6.07;;;14.10;45.40;;;;;;5058540;28;20504;-38
2021/04/15 09:47:19;;;;;;;11.55;7.03;;;12.90;44.60;;;;;;5016882;28;20131;-39
2021/04/15 09:49:59;;;;;;;14.00;10.60;;;13.90;44.10;;;;;;5009610;28;20216;-38
2021/04/15 09:53:02;;;;;;;7.55;3.30;;;14.30;43.50;;;;;;5010154;28;20183;-38
2021/04/15 09:56:12;;;;;;;6.57;3.75;;;14.50;41.20;;;;;;5013924;28;20054;-37
2021/04/15 09:59:17;;;;;;;7.20;4.55;;;13.80;41.00;;;;;;5017590;28;20050;-38
2021/04/15 10:02:15;;;;;;;11.35;6.85;;;13.80;44.60;;;;;;4982110;28;20064;-39
2021/04/15 10:04:56;;;;;;;6.70;3.73;;;14.30;44.90;;;;;;4983362;28;20050;-39
2021/04/15 10:07:34;;;;;;;29.63;23.08;;;15.20;41.10;;;;;;4979978;28;20718;-39
2021/04/15 10:10:21;;;;;;;11.13;6.53;;;14.60;39.80;;;;;;4983406;28;20082;-37
2021/04/15 10:13:24;;;;;;;29.05;24.40;;;14.60;37.80;;;;;;4987306;28;20122;-38
2021/04/15 10:15:56;;;;;;;8.43;5.78;;;15.40;40.90;;;;;;4983502;28;20085;-38
2021/04/15 10:18:37;;;;;;;6.35;2.92;;;16.00;38.70;;;;;;4982711;28;20129;-38
2021/04/15 10:21:25;;;;;;;7.70;4.30;;;14.90;34.80;;;;;;4982138;28;20054;-38
2021/04/15 10:23:51;;;;;;;3.67;2.08;;;14.40;37.20;;;;;;4981194;28;20856;-38
2021/04/15 10:26:27;;;;;;;4.43;2.17;;;13.70;36.90;;;;;;4993730;28;20128;-37
2021/04/15 10:29:02;;;;;;;5.28;2.53;;;13.10;36.50;;;;;;5029196;28;20524;-37
2021/04/15 10:31:54;;;;;;;3.55;1.40;;;13.70;37.60;;;;;;5029822;28;21218;-37
2021/04/15 10:34:20;;;;;;;5.20;3.95;;;14.30;39.70;;;;;;5059532;28;20044;-37
2021/04/15 10:37:20;;;;;;;5.13;2.28;;;15.30;38.50;;;;;;5070347;28;20040;-38
2021/04/15 10:40:11;;;;;;;3.25;1.73;;;16.00;37.40;;;;;;5063980;28;20507;-38
2021/04/15 10:43:12;;;;;;;4.63;1.60;;;16.80;35.80;;;;;;5062633;28;20052;-38
2021/04/15 10:46:10;;;;;;;8.52;5.63;;;17.00;31.20;;;;;;5065376;28;20046;-39
2021/04/15 10:48:56;;;;;;;15.02;11.32;;;16.00;32.30;;;;;;4989902;28;20086;-38
2021/04/15 10:51:33;;;;;;;7.68;5.15;;;16.10;33.40;;;;;;4995479;28;20495;-41
2021/04/15 10:54:23;;;;;;;6.13;3.80;;;16.50;33.30;;;;;;4984801;28;20050;-39
2021/04/15 10:56:53;;;;;;;9.98;5.57;;;16.60;32.10;;;;;;4990958;28;20166;-39
2021/04/15 10:59:40;;;;;;;6.93;4.68;;;15.70;32.00;;;;;;4992645;28;20050;-39
2021/04/15 11:02:28;;;;;;;6.10;2.65;;;14.80;33.80;;;;;;4991997;28;20101;-37
2021/04/15 11:05:30;;;;;;;4.07;1.90;;;13.90;35.00;;;;;;4996639;28;20049;-37
2021/04/15 11:08:07;;;;;;;5.63;2.77;;;13.50;34.30;;;;;;4984301;28;20057;-37
2021/04/15 11:10:38;;;;;;;4.00;1.80;;;13.60;37.10;;;;;;4989169;28;20624;-37
2021/04/15 11:13:23;;;;;;;4.60;1.83;;;14.70;35.50;;;;;;4993622;28;20124;-37
2021/04/15 11:15:57;;;;;;;5.18;1.75;;;15.50;32.40;;;;;;4991661;28;20072;-37
2021/04/15 11:18:33;;;;;;;3.97;1.92;;;15.90;31.90;;;;;;4994185;28;20617;-37
2021/04/15 11:21:21;;;;;;;3.25;1.90;;;16.70;30.90;;;;;;4988674;28;20050;-37
2021/04/15 11:23:52;;;;;;;2.75;1.85;;;16.90;30.80;;;;;;4987578;28;20105;-37
2021/04/15 11:26:30;;;;;;;4.40;1.80;;;17.50;32.40;;;;;;5053886;28;20059;-37
2021/04/15 11:29:21;;;;;;;2.85;1.67;;;17.60;32.80;;;;;;5062067;28;20134;-38
2021/04/15 11:31:52;;;;;;;3.05;1.20;;;18.20;32.10;;;;;;5053579;28;20240;-35
2021/04/15 11:34:26;;;;;;;2.70;1.58;;;17.60;31.70;;;;;;5061831;28;20057;-35
2021/04/15 11:36:59;;;;;;;2.63;1.60;;;17.20;29.60;;;;;;5060935;28;20072;-36
2021/04/15 11:39:29;;;;;;;3.95;1.83;;;17.60;32.40;;;;;;5063020;28;20139;-35
2021/04/15 11:42:15;;;;;;;4.20;1.95;;;18.00;30.90;;;;;;5061005;28;20048;-35
2021/04/15 11:44:54;;;;;;;4.03;1.92;;;18.20;28.80;;;;;;5063356;28;20053;-36
2021/04/15 11:47:31;;;;;;;3.67;1.75;;;18.60;29.20;;;;;;5064220;28;20139;-36
2021/04/15 11:50:20;;;;;;;8.82;6.97;;;18.50;29.60;;;;;;5060067;28;20917;-41
2021/04/15 11:53:42;;;;;;;7.15;5.18;;;18.40;27.60;;;;;;5068377;28;20610;-39
2021/04/15 11:56:31;;;;;;;7.10;5.38;;;18.30;28.20;;;;;;5039933;28;20524;-40
2021/04/15 11:59:17;;;;;;;5.07;3.15;;;18.40;26.40;;;;;;5040142;28;20110;-39
2021/04/15 12:01:44;;;;;;;4.88;2.38;;;18.40;26.30;;;;;;5033508;28;20528;-40
2021/04/15 12:04:27;;;;;;;4.57;2.30;;;18.80;29.00;;;;;;5040390;28;20052;-39
2021/04/15 12:07:08;;;;;;;10.48;5.28;;;18.80;27.80;;;;;;5045030;28;20476;-39
2021/04/15 12:09:37;;;;;;;4.53;2.33;;;19.20;28.30;;;;;;5039617;28;20083;-36
2021/04/15 12:12:38;;;;;;;4.28;2.58;;;18.70;28.80;;;;;;5042788;28;20049;-38
2021/04/15 12:15:13;;;;;;;5.00;2.22;;;17.90;27.90;;;;;;5026657;28;20061;-38
2021/04/15 12:17:53;;;;;;;4.82;1.80;;;17.10;29.10;;;;;;5040308;28;20175;-39
2021/04/15 12:20:45;;;;;;;4.80;2.00;;;16.50;30.00;;;;;;5027231;28;20096;-37
2021/04/15 12:23:36;;;;;;;9.43;7.60;;;16.20;28.80;;;;;;5038371;28;20048;-38
2021/04/15 12:26:12;;;;;;;9.52;6.65;;;16.30;29.70;;;;;;5030990;28;20046;-38
2021/04/15 12:28:58;;;;;;;20.02;17.17;;;16.30;29.50;;;;;;5038816;28;20053;-38
2021/04/15 12:31:45;;;;;;;5.28;2.90;;;15.70;28.60;;;;;;5060724;28;20064;-38
2021/04/15 12:34:28;;;;;;;10.23;7.85;;;15.20;29.60;;;;;;5060088;28;20048;-38
2021/04/15 12:37:08;;;;;;;4.22;2.22;;;14.80;30.90;;;;;;5071177;28;20101;-38
2021/04/15 12:40:14;;;;;;;7.53;6.47;;;14.60;30.70;;;;;;5067988;28;20049;-38
2021/04/15 12:42:56;;;;;;;5.22;2.55;;;14.90;32.50;;;;;;5059506;28;20097;-39
2021/04/15 12:45:33;;;;;;;4.57;1.80;;;15.40;29.40;;;;;;5066365;28;20052;-40
2021/04/15 12:48:03;;;;;;;5.90;1.98;;;16.30;28.40;;;;;;5063498;28;20060;-39
2021/04/15 12:50:34;;;;;;;5.15;2.22;;;16.50;27.50;;;;;;5064290;28;20058;-40
2021/04/15 12:53:08;;;;;;;4.43;1.98;;;17.60;29.20;;;;;;5067169;28;20075;-40
2021/04/15 12:55:34;;;;;;;5.45;3.00;;;18.10;28.60;;;;;;5061244;28;20048;-39
2021/04/15 12:58:05;;;;;;;4.13;1.67;;;18.70;28.40;;;;;;5066030;28;20485;-40
2021/04/15 13:00:40;;;;;;;5.18;2.47;;;18.60;27.20;;;;;;5067654;28;20059;-39
2021/04/15 13:03:11;;;;;;;5.22;2.20;;;18.90;27.20;;;;;;5064553;28;20076;-40
2021/04/15 13:05:56;;;;;;;3.40;1.90;;;18.30;27.00;;;;;;5065468;28;20051;-40
2021/04/15 13:08:34;;;;;;;3.63;1.90;;;17.20;27.80;;;;;;5056062;28;20099;-39
2021/04/15 13:11:18;;;;;;;3.70;1.80;;;16.60;28.50;;;;;;5058290;28;20084;-38
2021/04/15 13:13:55;;;;;;;3.45;1.88;;;15.80;30.00;;;;;;5061200;28;20052;-38
2021/04/15 13:16:34;;;;;;;3.92;1.90;;;15.10;30.40;;;;;;5054076;28;20053;-39
2021/04/15 13:19:09;;;;;;;3.00;1.40;;;14.80;30.90;;;;;;5061087;28;20048;-38
2021/04/15 13:21:56;;;;;;;3.70;1.73;;;14.60;31.50;;;;;;5062259;28;20052;-38
2021/04/15 13:24:46;;;;;;;4.60;1.33;;;14.30;31.20;;;;;;5066160;28;20053;-38
2021/04/15 13:27:34;;;;;;;4.32;1.73;;;14.20;31.40;;;;;;5050918;28;20053;-39
2021/04/15 13:30:17;;;;;;;3.17;1.67;;;14.00;32.70;;;;;;5059046;28;20094;-38
2021/04/15 13:33:10;;;;;;;4.43;2.00;;;14.20;32.70;;;;;;5048717;28;20048;-38
2021/04/15 13:35:57;;;;;;;3.05;1.60;;;14.30;33.00;;;;;;5061016;28;20637;-38
2021/04/15 13:38:38;;;;;;;5.30;1.95;;;15.10;33.10;;;;;;5067275;28;20052;-39
2021/04/15 13:41:22;;;;;;;4.40;1.80;;;16.20;30.30;;;;;;5062963;28;20480;-38
2021/04/15 13:43:56;;;;;;;2.78;1.35;;;15.90;30.50;;;;;;5062878;28;20049;-38
2021/04/15 13:49:03;;;;;;;4.90;2.67;;;16.30;31.60;;;;;;5061406;28;20143;-38
2021/04/15 13:51:44;;;;;;;17.75;14.15;;;17.40;29.90;;;;;;5061814;28;20052;-39
2021/04/15 13:54:17;;;;;;;6.90;4.57;;;17.80;29.50;;;;;;5063543;28;20060;-38
2021/04/15 13:57:02;;;;;;;3.20;1.63;;;17.30;28.10;;;;;;5056314;28;20076;-38
2021/04/15 13:59:42;;;;;;;9.15;7.15;;;16.60;28.90;;;;;;5059770;28;20049;-38
2021/04/15 14:02:20;;;;;;;15.38;11.25;;;16.00;30.00;;;;;;5060245;28;20076;-38
2021/04/15 14:04:54;;;;;;;12.57;7.45;;;15.40;32.00;;;;;;5058806;28;20047;-38
2021/04/15 14:07:37;;;;;;;7.22;3.97;;;14.80;31.40;;;;;;5064471;28;20061;-38
2021/04/15 14:10:16;;;;;;;7.70;3.53;;;14.40;33.30;;;;;;5056925;28;20091;-38
2021/04/15 14:12:56;;;;;;;6.75;4.43;;;14.00;34.20;;;;;;5060761;28;20060;-38